createdAt,value
2018-01-08T00:00:40.154Z,19.25
2018-01-08T00:01:49.081Z,19.25
2018-01-08T00:02:58.025Z,19.22
2018-01-08T00:04:06.714Z,19.23
2018-01-08T00:05:15.950Z,19.22
2018-01-08T00:06:25.144Z,19.25
2018-01-08T00:07:33.895Z,19.21
2018-01-08T00:08:43.346Z,19.23
2018-01-08T00:09:52.806Z,19.28
2018-01-08T00:11:01.752Z,19.25
2018-01-08T00:12:10.695Z,19.23
2018-01-08T00:13:19.628Z,19.25
2018-01-08T00:14:29.133Z,19.18
2018-01-08T00:15:37.856Z,19.22
2018-01-08T00:16:46.814Z,19.21
2018-01-08T00:17:56.023Z,19.31
2018-01-08T00:19:05.510Z,19.18
2018-01-08T00:20:14.734Z,19.29
2018-01-08T00:21:24.202Z,19.32
2018-01-08T00:22:33.421Z,19.25
2018-01-08T00:23:42.910Z,19.26
2018-01-08T00:24:52.120Z,19.32
2018-01-08T00:26:01.577Z,19.26
2018-01-08T00:27:10.515Z,19.26
2018-01-08T00:28:19.524Z,19.28
2018-01-08T00:29:28.986Z,19.25
2018-01-08T00:30:37.682Z,19.23
2018-01-08T00:31:46.619Z,19.31
2018-01-08T00:32:55.842Z,19.32
2018-01-08T00:34:05.047Z,19.33
2018-01-08T00:35:13.993Z,19.23
2018-01-08T00:36:23.199Z,19.32
2018-01-08T00:37:32.133Z,19.25
2018-01-08T00:38:41.077Z,19.28
2018-01-08T00:39:50.024Z,19.26
2018-01-08T00:40:58.956Z,19.23
2018-01-08T00:42:08.419Z,19.26
2018-01-08T00:43:17.358Z,19.28
2018-01-08T00:44:26.298Z,19.26
2018-01-08T00:45:35.241Z,19.23
2018-01-08T00:46:44.438Z,19.23
2018-01-08T00:47:53.643Z,19.22
2018-01-08T00:49:02.834Z,19.25
2018-01-08T00:50:11.511Z,19.29
2018-01-08T00:51:20.708Z,19.22
2018-01-08T00:52:29.647Z,19.25
2018-01-08T00:53:38.853Z,19.32
2018-01-08T00:54:48.085Z,19.31
2018-01-08T00:55:57.280Z,19.28
2018-01-08T00:57:06.741Z,19.26
2018-01-08T00:58:15.419Z,19.28
2018-01-08T00:59:24.359Z,19.32
2018-01-08T01:00:34.089Z,19.32
2018-01-08T01:01:43.030Z,19.28
2018-01-08T01:02:52.508Z,19.23
2018-01-08T01:04:01.211Z,19.32
2018-01-08T01:05:10.946Z,19.19
2018-01-08T01:06:19.882Z,19.22
2018-01-08T01:07:29.076Z,19.29
2018-01-08T01:08:37.741Z,19.22
2018-01-08T01:09:46.423Z,19.31
2018-01-08T01:10:55.107Z,19.26
2018-01-08T01:12:04.850Z,19.23
2018-01-08T01:13:13.803Z,19.31
2018-01-08T01:14:22.742Z,19.21
2018-01-08T01:15:31.948Z,19.25
2018-01-08T01:16:41.421Z,19.22
2018-01-08T01:17:50.107Z,19.23
2018-01-08T01:18:59.046Z,19.26
2018-01-08T01:20:08.539Z,19.25
2018-01-08T01:21:17.803Z,19.31
2018-01-08T01:22:26.995Z,19.22
2018-01-08T01:23:36.487Z,19.25
2018-01-08T01:24:45.696Z,19.31
2018-01-08T01:25:54.640Z,19.23
2018-01-08T01:27:03.600Z,19.26
2018-01-08T01:28:12.862Z,19.28
2018-01-08T01:29:21.797Z,19.21
2018-01-08T01:30:30.745Z,19.22
2018-01-08T01:31:39.689Z,19.29
2018-01-08T01:32:48.375Z,19.21
2018-01-08T01:33:57.313Z,19.22
2018-01-08T01:35:06.282Z,19.28
2018-01-08T01:36:15.498Z,19.28
2018-01-08T01:37:24.700Z,19.25
2018-01-08T01:38:33.649Z,19.18
2018-01-08T01:39:43.123Z,19.18
2018-01-08T01:40:52.063Z,19.21
2018-01-08T01:42:01.005Z,19.29
2018-01-08T01:43:10.458Z,19.26
2018-01-08T01:44:19.133Z,19.21
2018-01-08T01:45:28.600Z,19.25
2018-01-08T01:46:37.281Z,19.23
2018-01-08T01:47:45.973Z,19.23
2018-01-08T01:48:54.917Z,19.25
2018-01-08T01:50:03.596Z,19.22
2018-01-08T01:51:13.518Z,19.25
2018-01-08T01:52:22.712Z,19.26
2018-01-08T01:53:32.166Z,19.22
2018-01-08T01:54:40.853Z,19.21
2018-01-08T01:55:49.789Z,19.25
2018-01-08T01:56:58.734Z,19.25
2018-01-08T01:58:07.674Z,19.23
2018-01-08T01:59:16.618Z,19.18
2018-01-08T02:00:25.557Z,19.21
2018-01-08T02:01:34.755Z,19.18
2018-01-08T02:02:44.223Z,19.11
2018-01-08T02:03:53.674Z,19.25
2018-01-08T02:05:03.392Z,19.22
2018-01-08T02:06:12.105Z,19.16
2018-01-08T02:07:21.314Z,19.13
2018-01-08T02:08:29.988Z,19.21
2018-01-08T02:09:39.202Z,19.23
2018-01-08T02:10:48.156Z,19.1
2018-01-08T02:11:57.632Z,19.18
2018-01-08T02:13:06.823Z,19.23
2018-01-08T02:14:16.023Z,19.19
2018-01-08T02:15:24.716Z,19.22
2018-01-08T02:16:33.663Z,19.21
2018-01-08T02:17:42.599Z,19.23
2018-01-08T02:18:51.544Z,19.25
2018-01-08T02:20:00.768Z,19.19
2018-01-08T02:21:09.720Z,19.16
2018-01-08T02:22:18.931Z,19.1
2018-01-08T02:23:27.603Z,19.18
2018-01-08T02:24:36.801Z,19.13
2018-01-08T02:25:46.538Z,19.21
2018-01-08T02:26:55.738Z,19.13
2018-01-08T02:28:04.412Z,19.22
2018-01-08T02:29:13.866Z,19.22
2018-01-08T02:30:22.817Z,19.1
2018-01-08T02:31:32.274Z,19.18
2018-01-08T02:32:41.228Z,19.22
2018-01-08T02:33:50.172Z,19.18
2018-01-08T02:34:59.629Z,19.13
2018-01-08T02:36:09.113Z,19.14
2018-01-08T02:37:18.576Z,19.21
2018-01-08T02:38:27.797Z,19.13
2018-01-08T02:39:37.535Z,19.19
2018-01-08T02:40:46.989Z,19.18
2018-01-08T02:41:56.192Z,19.16
2018-01-08T02:43:05.150Z,19.23
2018-01-08T02:44:14.869Z,19.08
2018-01-08T02:45:24.078Z,19.16
2018-01-08T02:46:33.304Z,19.18
2018-01-08T02:47:42.763Z,19.23
2018-01-08T02:48:51.461Z,19.13
2018-01-08T02:50:00.406Z,19.23
2018-01-08T02:51:09.615Z,19.13
2018-01-08T02:52:18.833Z,19.19
2018-01-08T02:53:27.783Z,19.22
2018-01-08T02:54:36.712Z,19.23
2018-01-08T02:55:45.649Z,19.22
2018-01-08T02:56:55.128Z,19.21
2018-01-08T02:58:04.850Z,19.25
2018-01-08T02:59:14.058Z,19.23
2018-01-08T03:00:23.779Z,19.13
2018-01-08T03:01:32.999Z,19.16
2018-01-08T03:02:41.963Z,19.14
2018-01-08T03:03:51.693Z,19.16
2018-01-08T03:05:01.025Z,19.18
2018-01-08T03:06:09.936Z,19.14
2018-01-08T03:07:19.392Z,19.23
2018-01-08T03:08:28.091Z,19.14
2018-01-08T03:09:37.289Z,19.18
2018-01-08T03:10:45.981Z,19.21
2018-01-08T03:11:54.915Z,19.14
2018-01-08T03:13:04.140Z,19.13
2018-01-08T03:14:13.387Z,19.18
2018-01-08T03:15:22.344Z,19.23
2018-01-08T03:16:31.579Z,19.23
2018-01-08T03:17:40.783Z,19.21
2018-01-08T03:18:49.980Z,19.23
2018-01-08T03:19:59.468Z,19.21
2018-01-08T03:21:08.666Z,19.21
2018-01-08T03:22:17.611Z,19.25
2018-01-08T03:23:26.552Z,19.25
2018-01-08T03:24:35.491Z,19.19
2018-01-08T03:25:44.701Z,19.21
2018-01-08T03:26:53.912Z,19.14
2018-01-08T03:28:03.124Z,19.28
2018-01-08T03:29:12.314Z,19.13
2018-01-08T03:30:21.525Z,19.22
2018-01-08T03:31:30.490Z,19.25
2018-01-08T03:32:39.692Z,19.26
2018-01-08T03:33:48.905Z,19.23
2018-01-08T03:34:57.848Z,19.28
2018-01-08T03:36:06.797Z,19.21
2018-01-08T03:37:15.495Z,19.26
2018-01-08T03:38:24.458Z,19.19
2018-01-08T03:39:33.461Z,19.23
2018-01-08T03:40:42.672Z,19.29
2018-01-08T03:41:51.870Z,19.22
2018-01-08T03:43:01.062Z,19.31
2018-01-08T03:44:10.269Z,19.23
2018-01-08T03:45:20.264Z,19.25
2018-01-08T03:46:29.489Z,19.25
2018-01-08T03:47:38.678Z,19.23
2018-01-08T03:48:48.396Z,19.23
2018-01-08T03:49:57.858Z,19.23
2018-01-08T03:51:07.060Z,19.28
2018-01-08T03:52:16.511Z,19.22
2018-01-08T03:53:25.451Z,19.19
2018-01-08T03:54:34.653Z,19.21
2018-01-08T03:55:43.601Z,19.28
2018-01-08T03:56:52.815Z,19.23
2018-01-08T03:58:02.280Z,19.29
2018-01-08T03:59:11.214Z,19.22
2018-01-08T04:00:19.912Z,19.25
2018-01-08T04:01:29.108Z,19.22
2018-01-08T04:02:38.044Z,19.11
2018-01-08T04:03:47.243Z,19.19
2018-01-08T04:04:56.447Z,19.21
2018-01-08T04:06:05.382Z,19.18
2018-01-08T04:07:14.581Z,19.21
2018-01-08T04:08:23.520Z,19.23
2018-01-08T04:09:32.720Z,19.19
2018-01-08T04:10:41.910Z,19.25
2018-01-08T04:11:50.849Z,19.21
2018-01-08T04:12:59.777Z,19.13
2018-01-08T04:14:08.705Z,19.14
2018-01-08T04:15:17.647Z,19.25
2018-01-08T04:16:26.853Z,19.19
2018-01-08T04:17:35.547Z,19.21
2018-01-08T04:18:44.231Z,19.22
2018-01-08T04:19:53.962Z,19.22
2018-01-08T04:21:03.673Z,19.23
2018-01-08T04:22:12.910Z,19.18
2018-01-08T04:23:22.112Z,19.14
2018-01-08T04:24:31.316Z,19.22
2018-01-08T04:25:40.523Z,19.23
2018-01-08T04:26:49.202Z,19.19
2018-01-08T04:27:58.660Z,19.19
2018-01-08T04:29:07.596Z,19.1
2018-01-08T04:30:16.798Z,19.13
2018-01-08T04:31:26.515Z,19.18
2018-01-08T04:32:35.712Z,19.23
2018-01-08T04:33:44.653Z,19.23
2018-01-08T04:34:53.583Z,19.22
2018-01-08T04:36:02.521Z,19.19
2018-01-08T04:37:11.983Z,19.21
2018-01-08T04:38:20.919Z,19.25
2018-01-08T04:39:29.607Z,19.23
2018-01-08T04:40:38.811Z,19.22
2018-01-08T04:41:47.744Z,19.22
2018-01-08T04:42:56.670Z,19.22
2018-01-08T04:44:05.608Z,19.19
2018-01-08T04:45:14.286Z,19.22
2018-01-08T04:46:23.547Z,19.1
2018-01-08T04:47:32.751Z,19.1
2018-01-08T04:48:42.224Z,19.13
2018-01-08T04:49:51.959Z,19.13
2018-01-08T04:51:00.900Z,19.21
2018-01-08T04:52:10.378Z,19.21
2018-01-08T04:53:19.579Z,19.18
2018-01-08T04:54:28.775Z,19.18
2018-01-08T04:55:37.963Z,19.07
2018-01-08T04:56:47.169Z,19.1
2018-01-08T04:57:56.647Z,19.18
2018-01-08T04:59:05.862Z,19.14
2018-01-08T05:00:14.835Z,19.07
2018-01-08T05:01:23.522Z,19.1
2018-01-08T05:02:32.211Z,19.13
2018-01-08T05:03:40.882Z,19.14
2018-01-08T05:04:50.521Z,19.11
2018-01-08T05:05:59.199Z,19.1
2018-01-08T05:07:08.414Z,19.11
2018-01-08T05:08:17.623Z,19.14
2018-01-08T05:09:26.816Z,19.13
2018-01-08T05:10:35.756Z,19.14
2018-01-08T05:11:44.964Z,19.06
2018-01-08T05:12:53.900Z,19.14
2018-01-08T05:14:03.371Z,19.16
2018-01-08T05:15:12.841Z,19.14
2018-01-08T05:16:21.825Z,19.11
2018-01-08T05:17:31.329Z,19.11
2018-01-08T05:19:12.362Z,19.16
2018-01-08T05:20:21.303Z,19.13
2018-01-08T05:21:30.496Z,19.13
2018-01-08T05:22:40.381Z,19.14
2018-01-08T05:23:49.840Z,19.11
2018-01-08T05:24:58.784Z,19.1
2018-01-08T05:26:08.316Z,19.1
2018-01-08T05:27:17.251Z,19.1
2018-01-08T05:28:25.937Z,19.13
2018-01-08T05:29:35.473Z,19.13
2018-01-08T05:30:44.951Z,19.14
2018-01-08T05:31:54.174Z,19.11
2018-01-08T05:33:03.896Z,19.14
2018-01-08T05:34:13.348Z,19.16
2018-01-08T05:35:22.795Z,19.19
2018-01-08T05:36:31.980Z,19.22
2018-01-08T05:37:41.183Z,19.19
2018-01-08T05:38:50.368Z,19.29
2018-01-08T05:39:59.314Z,19.23
2018-01-08T05:41:08.537Z,19.32
2018-01-08T05:42:17.474Z,19.4
2018-01-08T05:43:26.669Z,19.46
2018-01-08T05:44:35.608Z,19.47
2018-01-08T05:45:45.600Z,19.55
2018-01-08T05:46:55.194Z,19.62
2018-01-08T05:48:04.393Z,19.71
2018-01-08T05:49:13.099Z,19.62
2018-01-08T05:50:22.294Z,19.74
2018-01-08T05:51:31.249Z,19.86
2018-01-08T05:52:39.938Z,19.83
2018-01-08T05:53:49.200Z,20.02
2018-01-08T05:54:57.875Z,19.99
2018-01-08T05:56:07.090Z,20.08
2018-01-08T05:57:16.028Z,20.1
2018-01-08T05:58:24.721Z,20.1
2018-01-08T05:59:33.923Z,20.21
2018-01-08T06:00:43.127Z,20.24
2018-01-08T06:01:52.586Z,20.23
2018-01-08T06:03:01.519Z,20.31
2018-01-08T06:04:10.977Z,20.38
2018-01-08T06:05:19.731Z,20.47
2018-01-08T06:06:28.670Z,20.47
2018-01-08T06:07:38.134Z,20.43
2018-01-08T06:08:47.356Z,20.51
2018-01-08T06:09:56.021Z,20.64
2018-01-08T06:11:04.713Z,20.66
2018-01-08T06:12:14.176Z,20.72
2018-01-08T06:13:23.369Z,20.7
2018-01-08T06:14:32.571Z,20.67
2018-01-08T06:15:41.847Z,20.74
2018-01-08T06:16:51.103Z,20.84
2018-01-08T06:18:00.053Z,20.77
2018-01-08T06:19:08.989Z,20.88
2018-01-08T06:20:17.928Z,20.92
2018-01-08T06:21:27.140Z,20.95
2018-01-08T06:22:36.081Z,21.04
2018-01-08T06:23:44.750Z,21.09
2018-01-08T06:24:54.219Z,21.1
2018-01-08T06:26:04.225Z,21.14
2018-01-08T06:27:13.158Z,21.17
2018-01-08T06:28:22.356Z,21.24
2018-01-08T06:29:31.560Z,21.28
2018-01-08T06:30:40.247Z,21.38
2018-01-08T06:31:48.921Z,21.34
2018-01-08T06:32:58.119Z,21.47
2018-01-08T06:34:06.782Z,21.4
2018-01-08T06:35:15.989Z,21.49
2018-01-08T06:36:24.665Z,21.5
2018-01-08T06:37:33.884Z,21.58
2018-01-08T06:38:43.886Z,21.64
2018-01-08T06:39:53.093Z,21.64
2018-01-08T06:41:02.587Z,21.68
2018-01-08T06:42:12.050Z,21.74
2018-01-08T06:43:21.017Z,21.77
2018-01-08T06:44:30.468Z,21.86
2018-01-08T06:45:39.141Z,21.79
2018-01-08T06:46:48.351Z,21.8
2018-01-08T06:47:57.024Z,21.86
2018-01-08T06:49:06.233Z,21.86
2018-01-08T06:50:15.436Z,21.9
2018-01-08T06:51:24.370Z,21.92
2018-01-08T06:52:33.580Z,21.9
2018-01-08T06:53:42.519Z,21.86
2018-01-08T06:54:51.712Z,21.99
2018-01-08T06:56:00.940Z,21.91
2018-01-08T06:57:10.569Z,21.91
2018-01-08T06:58:19.880Z,21.94
2018-01-08T06:59:28.564Z,21.9
2018-01-08T07:00:37.556Z,21.92
2018-01-08T07:01:46.806Z,21.91
2018-01-08T07:02:55.746Z,21.98
2018-01-08T07:04:04.423Z,21.98
2018-01-08T07:05:13.367Z,21.84
2018-01-08T07:06:22.306Z,21.75
2018-01-08T07:07:31.506Z,21.74
2018-01-08T07:08:41.237Z,21.79
2018-01-08T07:09:50.188Z,21.77
2018-01-08T07:10:59.122Z,21.75
2018-01-08T07:12:08.072Z,21.65
2018-01-08T07:13:17.270Z,21.59
2018-01-08T07:14:26.474Z,21.61
2018-01-08T07:15:35.689Z,21.59
2018-01-08T07:16:45.165Z,21.54
2018-01-08T07:17:54.625Z,21.58
2018-01-08T07:19:03.845Z,21.56
2018-01-08T07:20:13.044Z,21.56
2018-01-08T07:21:22.238Z,21.42
2018-01-08T07:22:31.191Z,21.43
2018-01-08T07:23:40.657Z,21.44
2018-01-08T07:24:49.590Z,21.35
2018-01-08T07:25:58.279Z,21.35
2018-01-08T07:27:07.742Z,21.29
2018-01-08T07:28:16.963Z,21.27
2018-01-08T07:29:25.908Z,21.22
2018-01-08T07:30:34.864Z,21.21
2018-01-08T07:31:43.809Z,21.14
2018-01-08T07:32:52.513Z,21.16
2018-01-08T07:34:01.743Z,21.14
2018-01-08T07:35:10.951Z,21.1
2018-01-08T07:36:19.907Z,21.01
2018-01-08T07:37:28.871Z,21.06
2018-01-08T07:38:37.822Z,20.98
2018-01-08T07:39:47.024Z,20.98
2018-01-08T07:40:56.319Z,20.92
2018-01-08T07:42:05.553Z,20.92
2018-01-08T07:43:15.023Z,20.8
2018-01-08T07:44:24.220Z,20.82
2018-01-08T07:45:33.423Z,20.74
2018-01-08T07:46:43.149Z,20.77
2018-01-08T07:47:52.628Z,20.79
2018-01-08T07:49:01.292Z,20.77
2018-01-08T07:50:10.238Z,20.64
2018-01-08T07:51:19.693Z,20.69
2018-01-08T07:52:28.378Z,20.74
2018-01-08T07:53:37.580Z,20.69
2018-01-08T07:54:46.532Z,20.73
2018-01-08T07:55:55.473Z,20.59
2018-01-08T07:57:04.160Z,20.64
2018-01-08T07:58:13.373Z,20.62
2018-01-08T07:59:23.095Z,20.66
2018-01-08T08:00:31.785Z,20.55
2018-01-08T08:01:40.751Z,20.52
2018-01-08T08:02:49.966Z,20.54
2018-01-08T08:03:58.650Z,20.58
2018-01-08T08:05:07.612Z,20.42
2018-01-08T08:06:16.816Z,20.51
2018-01-08T08:07:25.804Z,20.5
2018-01-08T08:08:34.806Z,20.42
2018-01-08T08:09:43.490Z,20.5
2018-01-08T08:10:52.256Z,20.41
2018-01-08T08:12:00.935Z,20.41
2018-01-08T08:13:10.186Z,20.42
2018-01-08T08:14:19.080Z,20.36
2018-01-08T08:15:28.821Z,20.39
2018-01-08T08:16:37.528Z,20.36
2018-01-08T08:17:46.220Z,20.31
2018-01-08T08:18:55.682Z,20.26
2018-01-08T08:20:05.150Z,20.36
2018-01-08T08:21:13.890Z,20.33
2018-01-08T08:22:23.622Z,20.29
2018-01-08T08:23:33.086Z,20.26
2018-01-08T08:24:42.307Z,20.18
2018-01-08T08:25:51.795Z,20.18
2018-01-08T08:27:00.999Z,20.16
2018-01-08T08:28:10.204Z,20.16
2018-01-08T08:29:19.667Z,20.21
2018-01-08T08:30:28.872Z,20.21
2018-01-08T08:31:38.070Z,20.18
2018-01-08T08:32:47.791Z,20.11
2018-01-08T08:33:57.002Z,20.16
2018-01-08T08:35:06.207Z,20.14
2018-01-08T08:36:14.890Z,20.17
2018-01-08T08:37:23.833Z,20.13
2018-01-08T08:38:33.576Z,20.14
2018-01-08T08:39:42.786Z,20.03
2018-01-08T08:40:51.991Z,19.98
2018-01-08T08:42:01.212Z,19.99
2018-01-08T08:43:10.518Z,20.05
2018-01-08T08:44:19.737Z,20.01
2018-01-08T08:45:28.668Z,20.02
2018-01-08T08:46:37.358Z,19.99
2018-01-08T08:47:46.309Z,20.02
2018-01-08T08:48:55.875Z,20.05
2018-01-08T08:50:04.820Z,19.98
2018-01-08T08:51:13.758Z,20.03
2018-01-08T08:52:23.226Z,20.1
2018-01-08T08:53:32.170Z,19.95
2018-01-08T08:54:41.638Z,19.91
2018-01-08T08:55:50.870Z,19.98
2018-01-08T08:56:59.802Z,19.96
2018-01-08T08:58:09.058Z,19.96
2018-01-08T08:59:17.739Z,19.96
2018-01-08T09:00:26.935Z,19.88
2018-01-08T09:01:36.405Z,19.81
2018-01-08T09:02:45.608Z,19.86
2018-01-08T09:03:54.812Z,19.92
2018-01-08T09:05:03.508Z,19.91
2018-01-08T09:06:12.981Z,19.86
2018-01-08T09:07:22.189Z,19.94
2018-01-08T09:08:31.152Z,19.86
2018-01-08T09:09:39.812Z,19.96
2018-01-08T09:10:49.294Z,19.95
2018-01-08T09:11:58.503Z,19.88
2018-01-08T09:13:07.992Z,19.84
2018-01-08T09:14:16.669Z,19.86
2018-01-08T09:15:26.414Z,19.87
2018-01-08T09:16:35.909Z,19.84
2018-01-08T09:17:45.128Z,19.81
2018-01-08T09:18:54.593Z,19.94
2018-01-08T09:20:03.538Z,19.86
2018-01-08T09:21:12.483Z,19.83
2018-01-08T09:22:21.723Z,19.91
2018-01-08T09:23:30.928Z,19.84
2018-01-08T09:24:40.657Z,19.8
2018-01-08T09:25:50.381Z,19.87
2018-01-08T09:26:59.612Z,19.86
2018-01-08T09:28:08.828Z,19.86
2018-01-08T09:29:17.776Z,19.87
2018-01-08T09:30:26.472Z,19.94
2018-01-08T09:31:35.952Z,19.86
2018-01-08T09:32:45.426Z,19.87
2018-01-08T09:33:54.636Z,19.91
2018-01-08T09:35:04.631Z,19.87
2018-01-08T09:36:13.593Z,19.87
2018-01-08T09:37:22.526Z,19.88
2018-01-08T09:38:31.737Z,19.83
2018-01-08T09:39:40.795Z,19.84
2018-01-08T09:40:49.732Z,19.81
2018-01-08T09:41:58.681Z,19.87
2018-01-08T09:43:07.362Z,19.95
2018-01-08T09:44:16.036Z,19.83
2018-01-08T09:45:24.710Z,19.86
2018-01-08T09:46:33.659Z,19.94
2018-01-08T09:47:42.859Z,19.86
2018-01-08T09:48:52.387Z,19.88
2018-01-08T09:50:01.856Z,19.87
2018-01-08T09:51:11.067Z,19.76
2018-01-08T09:52:20.255Z,19.84
2018-01-08T09:53:28.946Z,19.84
2018-01-08T09:54:37.896Z,19.87
2018-01-08T09:55:47.093Z,19.87
2018-01-08T09:56:56.038Z,19.84
2018-01-08T09:58:05.242Z,19.88
2018-01-08T09:59:14.451Z,19.84
2018-01-08T10:00:23.438Z,19.86
2018-01-08T10:01:32.901Z,19.81
2018-01-08T10:02:42.101Z,19.81
2018-01-08T10:03:51.067Z,19.84
2018-01-08T10:04:59.750Z,19.86
2018-01-08T10:06:08.703Z,19.87
2018-01-08T10:07:17.905Z,19.83
2018-01-08T10:08:27.116Z,19.78
2018-01-08T10:09:36.137Z,19.83
2018-01-08T10:10:45.646Z,19.83
2018-01-08T10:11:54.849Z,19.83
2018-01-08T10:13:04.573Z,19.77
2018-01-08T10:14:13.339Z,19.83
2018-01-08T10:15:22.233Z,19.74
2018-01-08T10:16:31.179Z,19.86
2018-01-08T10:17:40.396Z,19.74
2018-01-08T10:18:49.088Z,19.81
2018-01-08T10:19:58.301Z,19.77
2018-01-08T10:21:06.987Z,19.83
2018-01-08T10:22:16.197Z,19.78
2018-01-08T10:23:25.663Z,19.73
2018-01-08T10:24:35.142Z,19.74
2018-01-08T10:25:44.352Z,19.86
2018-01-08T10:26:53.302Z,19.81
2018-01-08T10:28:02.555Z,19.77
2018-01-08T10:29:11.771Z,19.76
2018-01-08T10:30:20.730Z,19.86
2018-01-08T10:31:30.191Z,19.86
2018-01-08T10:32:39.168Z,19.81
2018-01-08T10:33:48.383Z,19.86
2018-01-08T10:34:57.326Z,19.84
2018-01-08T10:36:06.273Z,19.73
2018-01-08T10:37:15.207Z,19.76
2018-01-08T10:38:24.410Z,19.81
2018-01-08T10:39:33.355Z,19.74
2018-01-08T10:40:42.613Z,19.76
2018-01-08T10:41:51.551Z,19.73
2018-01-08T10:43:00.753Z,19.73
2018-01-08T10:44:09.694Z,19.73
2018-01-08T10:45:19.170Z,19.78
2018-01-08T10:46:28.630Z,19.8
2018-01-08T10:47:37.840Z,19.73
2018-01-08T10:48:46.780Z,19.73
2018-01-08T10:49:56.242Z,19.76
2018-01-08T10:51:05.176Z,19.8
2018-01-08T10:52:14.638Z,19.71
2018-01-08T10:53:24.105Z,19.73
2018-01-08T10:54:33.063Z,19.81
2018-01-08T10:55:42.019Z,19.76
2018-01-08T10:56:50.984Z,19.86
2018-01-08T10:57:59.671Z,19.81
2018-01-08T10:59:08.885Z,19.81
2018-01-08T11:00:17.848Z,19.74
2018-01-08T11:01:27.313Z,19.73
2018-01-08T11:02:36.267Z,19.81
2018-01-08T11:03:45.482Z,19.77
2018-01-08T11:04:54.684Z,19.78
2018-01-08T11:06:04.162Z,19.81
2018-01-08T11:07:12.859Z,19.76
2018-01-08T11:08:21.799Z,19.83
2018-01-08T11:09:30.748Z,19.83
2018-01-08T11:10:39.433Z,19.77
2018-01-08T11:11:48.634Z,19.76
2018-01-08T11:12:57.846Z,19.77
2018-01-08T11:14:07.100Z,19.74
2018-01-08T11:15:16.265Z,19.81
2018-01-08T11:16:25.475Z,19.74
2018-01-08T11:17:35.198Z,19.73
2018-01-08T11:18:44.130Z,19.84
2018-01-08T11:19:53.074Z,19.81
2018-01-08T11:21:02.286Z,19.8
2018-01-08T11:22:10.952Z,19.76
2018-01-08T11:23:19.917Z,19.73
2018-01-08T11:24:28.861Z,19.8
2018-01-08T11:25:38.061Z,19.8
2018-01-08T11:26:47.534Z,19.77
2018-01-08T11:27:56.492Z,19.76
2018-01-08T11:29:05.987Z,19.8
2018-01-08T11:30:15.203Z,19.74
2018-01-08T11:31:24.156Z,19.78
2018-01-08T11:32:33.636Z,19.8
2018-01-08T11:33:42.595Z,19.84
2018-01-08T11:34:52.076Z,19.84
2018-01-08T11:36:01.028Z,19.86
2018-01-08T11:37:10.231Z,19.86
2018-01-08T11:38:19.450Z,19.81
2018-01-08T11:39:28.908Z,19.86
2018-01-08T11:40:38.387Z,19.86
2018-01-08T11:41:47.336Z,19.86
2018-01-08T11:42:56.601Z,19.81
2018-01-08T11:44:05.815Z,19.81
2018-01-08T11:45:14.753Z,19.87
2018-01-08T11:46:23.970Z,19.86
2018-01-08T11:47:33.449Z,19.94
2018-01-08T11:48:42.658Z,19.96
2018-01-08T11:49:51.593Z,19.87
2018-01-08T11:51:00.533Z,19.84
2018-01-08T11:52:10.003Z,19.81
2018-01-08T11:53:19.198Z,19.94
2018-01-08T11:54:28.669Z,19.94
2018-01-08T11:55:37.860Z,19.88
2018-01-08T11:56:47.088Z,19.92
2018-01-08T11:57:56.578Z,19.88
2018-01-08T11:59:05.785Z,19.8
2018-01-08T12:00:15.265Z,19.92
2018-01-08T12:01:24.231Z,19.86
2018-01-08T12:02:32.958Z,19.8
2018-01-08T12:03:41.706Z,19.95
2018-01-08T12:04:50.929Z,19.84
2018-01-08T12:05:59.947Z,19.81
2018-01-08T12:07:09.158Z,19.83
2018-01-08T12:08:17.858Z,19.94
2018-01-08T12:09:27.074Z,19.92
2018-01-08T12:10:36.288Z,19.84
2018-01-08T12:11:45.552Z,19.86
2018-01-08T12:12:54.510Z,19.86
2018-01-08T12:14:03.771Z,19.83
2018-01-08T12:15:13.018Z,19.91
2018-01-08T12:16:21.964Z,19.84
2018-01-08T12:17:31.440Z,19.91
2018-01-08T12:18:40.390Z,19.86
2018-01-08T12:19:49.079Z,19.86
2018-01-08T12:20:58.815Z,19.87
2018-01-08T12:22:08.284Z,19.88
2018-01-08T12:23:17.240Z,19.92
2018-01-08T12:24:25.929Z,19.91
2018-01-08T12:25:34.900Z,19.84
2018-01-08T12:26:43.844Z,19.83
2018-01-08T12:27:53.043Z,19.83
2018-01-08T12:29:02.509Z,19.87
2018-01-08T12:30:12.511Z,19.83
2018-01-08T12:31:21.457Z,19.83
2018-01-08T12:32:31.197Z,19.84
2018-01-08T12:33:40.413Z,19.77
2018-01-08T12:34:49.393Z,19.74
2018-01-08T12:35:58.846Z,19.83
2018-01-08T12:37:08.041Z,19.83
2018-01-08T12:38:16.756Z,19.84
2018-01-08T12:39:25.960Z,19.86
2018-01-08T12:40:34.893Z,19.8
2018-01-08T12:41:44.094Z,19.74
2018-01-08T12:42:53.567Z,19.86
2018-01-08T12:44:02.768Z,19.76
2018-01-08T12:45:11.718Z,19.74
2018-01-08T12:46:20.666Z,19.73
2018-01-08T12:47:29.606Z,19.76
2018-01-08T12:48:38.293Z,19.73
2018-01-08T12:49:47.751Z,19.81
2018-01-08T12:50:56.731Z,19.8
2018-01-08T12:52:05.949Z,19.77
2018-01-08T12:53:15.146Z,19.77
2018-01-08T12:54:24.083Z,19.78
2018-01-08T12:55:33.811Z,19.83
2018-01-08T12:56:42.755Z,19.76
2018-01-08T12:57:51.972Z,19.76
2018-01-08T12:59:00.920Z,19.77
2018-01-08T13:00:10.134Z,19.78
2018-01-08T13:01:19.334Z,19.73
2018-01-08T13:02:28.549Z,19.71
2018-01-08T13:03:37.226Z,19.8
2018-01-08T13:04:46.690Z,19.76
2018-01-08T13:05:56.207Z,19.73
2018-01-08T13:07:05.412Z,19.78
2018-01-08T13:08:14.355Z,19.78
2018-01-08T13:09:23.575Z,19.76
2018-01-08T13:10:32.782Z,19.76
2018-01-08T13:11:41.990Z,19.77
2018-01-08T13:12:50.934Z,19.84
2018-01-08T13:14:00.404Z,19.76
2018-01-08T13:15:09.423Z,19.73
2018-01-08T13:16:18.625Z,19.76
2018-01-08T13:17:27.304Z,19.76
2018-01-08T13:18:35.979Z,19.81
2018-01-08T13:19:45.730Z,19.76
2018-01-08T13:20:54.929Z,19.76
2018-01-08T13:22:04.125Z,19.81
2018-01-08T13:23:13.083Z,19.81
2018-01-08T13:24:22.314Z,19.76
2018-01-08T13:25:30.996Z,19.84
2018-01-08T13:26:39.929Z,19.8
2018-01-08T13:27:48.619Z,19.77
2018-01-08T13:28:57.574Z,19.78
2018-01-08T13:30:06.524Z,19.83
2018-01-08T13:31:15.983Z,19.84
2018-01-08T13:32:25.732Z,19.8
2018-01-08T13:33:34.462Z,19.86
2018-01-08T13:34:43.665Z,19.81
2018-01-08T13:35:52.625Z,19.8
2018-01-08T13:37:01.297Z,19.76
2018-01-08T13:38:10.238Z,19.87
2018-01-08T13:39:19.450Z,19.78
2018-01-08T13:40:28.659Z,19.81
2018-01-08T13:41:37.592Z,19.74
2018-01-08T13:42:46.785Z,19.83
2018-01-08T13:43:56.001Z,19.81
2018-01-08T13:45:04.948Z,19.83
2018-01-08T13:46:14.926Z,19.87
2018-01-08T13:47:23.865Z,19.78
2018-01-08T13:48:32.560Z,19.87
2018-01-08T13:49:41.245Z,19.83
2018-01-08T13:50:50.723Z,19.81
2018-01-08T13:51:59.930Z,19.74
2018-01-08T13:53:08.872Z,19.8
2018-01-08T13:54:18.092Z,19.77
2018-01-08T13:55:27.034Z,19.77
2018-01-08T13:56:36.233Z,19.76
2018-01-08T13:57:45.186Z,19.76
2018-01-08T13:58:54.124Z,19.74
2018-01-08T14:00:03.424Z,19.81
2018-01-08T14:01:12.325Z,19.74
2018-01-08T14:02:21.524Z,19.77
2018-01-08T14:03:30.200Z,19.8
2018-01-08T14:04:39.667Z,19.71
2018-01-08T14:05:49.146Z,19.78
2018-01-08T14:06:58.083Z,19.73
2018-01-08T14:08:07.559Z,19.74
2018-01-08T14:09:16.778Z,19.74
2018-01-08T14:10:25.732Z,19.71
2018-01-08T14:11:35.185Z,19.71
2018-01-08T14:12:43.864Z,19.71
2018-01-08T14:13:52.884Z,19.73
2018-01-08T14:15:01.955Z,19.71
2018-01-08T14:16:11.687Z,19.77
2018-01-08T14:17:20.884Z,19.71
2018-01-08T14:18:29.564Z,19.61
2018-01-08T14:19:39.057Z,19.73
2018-01-08T14:20:48.256Z,19.65
2018-01-08T14:21:57.209Z,19.71
2018-01-08T14:23:06.415Z,19.62
2018-01-08T14:24:15.625Z,19.65
2018-01-08T14:25:24.836Z,19.65
2018-01-08T14:26:34.082Z,19.63
2018-01-08T14:27:43.038Z,19.65
2018-01-08T14:28:52.522Z,19.62
2018-01-08T14:30:02.004Z,19.66
2018-01-08T14:31:11.482Z,19.65
2018-01-08T14:32:20.694Z,19.69
2018-01-08T14:33:29.650Z,19.62
2018-01-08T14:34:39.159Z,19.68
2018-01-08T14:35:48.428Z,19.76
2018-01-08T14:36:57.636Z,19.74
2018-01-08T14:38:06.316Z,19.68
2018-01-08T14:39:15.569Z,19.68
2018-01-08T14:40:24.780Z,19.62
2018-01-08T14:41:33.986Z,19.68
2018-01-08T14:42:43.455Z,19.69
2018-01-08T14:43:52.424Z,19.71
2018-01-08T14:45:01.382Z,19.69
2018-01-08T14:46:10.122Z,19.66
2018-01-08T14:47:19.066Z,19.74
2018-01-08T14:48:28.270Z,19.69
2018-01-08T14:49:37.478Z,19.61
2018-01-08T14:50:47.093Z,19.69
2018-01-08T14:51:56.056Z,19.59
2018-01-08T14:53:04.752Z,19.65